Batchtown, Illinois
Current Conditions -  °F | °C
As of 10:54 PM on Saturday 20 Dec 2014 (Local Time) from KSET Reporting Station
Overcast Overcast  
Wind Chill: 34°   Ceiling: 3100
Heat Index: 38°   Visibility: 7mi
Dew Point: 35°   Wind: 5mph
Humidity: 89%   Direction: 100°E
Pressure: 30.24"   Gusts: NA
Location:  39.03°N, 90.66°W
Report Text: KSET 210454Z AUTO 10004KT 7SM OVC031 03/02 A3024 RMK AO2 SLP242 T00330017
Loading
Personal Weather Stations






























Interactive Weather Map New forecast layout! Learn more

10-Day Weather Forecast

Advertisements
Track Severe Weather on mobile